Airfield :
LOGIN :

Register | Disclaimer

   EN    FR    IT 

 










Legend :    VFR   Marginal VFR   IFR   Intensive IFR   Very Intensive IFR
Visi :
Ceiling :
>= 8 km
>= 3000ft
5 to 8 km
1000 to 3000 ft
1500m to 5 km
500 to 1000 ft
800 to 1500m
200 to 500 ft
< 800m
< 200 ft
Symbols :   Thunderstorms  Fog  Heavy snow  Heavy precipitations  Wind > 20 kt
SIGMETs :     Misc.  Thunderstorms  Icing  Turbulence  Mountain Waves  Volcanic Ashes







- Airport Elevation : 177 ft
- IATA code : BRI


LIBD - Palese Macchie Bari

CURRENT METAR :
  • 170050Z VRB03KT 9999 FEW015 SCT030 21/20 Q1014

EXPIRED METARs :
  • 170020Z VRB03KT 9999 FEW015 SCT030 21/20 Q1014
  • 162350Z VRB03KT 9999 FEW015 SCT030 22/20 Q1014
  • 162320Z VRB03KT 9999 FEW015 SCT030 22/20 Q1014
  • 162250Z VRB03KT 9999 FEW015CB SCT030 23/20 Q1014 RETSRA
  • 162220Z VRB02KT 8000 -TSRA FEW015CB SCT030 23/19 Q1014

TAF TAF LIBD
Valid from the 17 at 00:00 until the 18 at 00:00 UTC


162300Z 1700/1724 VRB05KT 9999 SCT030
TEMPO 1700/1703 TSRA
BECMG 1708/1710 04010KT
BECMG 1716/1718 VRB05KT
No reported NOTAMs for that airfield.



MET'MAP, your aeronautical weather chart ! - Copyright ORBIFLY December 2007 - Disclaimer

ORBIFLY MET'MAP TEAM :

Programming & Development : Alexandra Zaïnal
Concept & Development : Baudouin d'Aumeries
Co-Development & Prog : Marc-Olivier Méhu
Technical & hardware support : Manuel Goepfert

Contact : metmap@orbifly.com




SOURCES & CREDITS :

   NOAA